sensor_id;sensor_type;location;lat;lon;timestamp;P1;durP1;ratioP1;P2;durP2;ratioP2
55328;SDS011;41205;44.264;19.884;2023-11-21T00:00:01;77.80;;;49.40;;
55328;SDS011;41205;44.264;19.884;2023-11-21T00:02:27;67.63;;;40.85;;
55328;SDS011;41205;44.264;19.884;2023-11-21T00:05:14;40.90;;;29.13;;
55328;SDS011;41205;44.264;19.884;2023-11-21T00:07:42;33.40;;;22.05;;
55328;SDS011;41205;44.264;19.884;2023-11-21T00:10:09;38.95;;;25.83;;
55328;SDS011;41205;44.264;19.884;2023-11-21T00:12:35;27.95;;;18.58;;
55328;SDS011;41205;44.264;19.884;2023-11-21T00:15:02;31.70;;;21.50;;
55328;SDS011;41205;44.264;19.884;2023-11-21T00:17:42;26.90;;;19.85;;
55328;SDS011;41205;44.264;19.884;2023-11-21T00:20:11;24.05;;;20.25;;
55328;SDS011;41205;44.264;19.884;2023-11-21T00:22:38;43.88;;;36.03;;
55328;SDS011;41205;44.264;19.884;2023-11-21T00:25:05;50.22;;;39.83;;
55328;SDS011;41205;44.264;19.884;2023-11-21T00:27:34;30.15;;;19.25;;
55328;SDS011;41205;44.264;19.884;2023-11-21T00:30:03;22.38;;;16.73;;
55328;SDS011;41205;44.264;19.884;2023-11-21T00:32:33;26.73;;;20.67;;
55328;SDS011;41205;44.264;19.884;2023-11-21T00:35:00;32.67;;;25.15;;
55328;SDS011;41205;44.264;19.884;2023-11-21T00:37:26;37.63;;;31.17;;
55328;SDS011;41205;44.264;19.884;2023-11-21T00:39:52;54.53;;;44.08;;
55328;SDS011;41205;44.264;19.884;2023-11-21T00:42:18;59.35;;;45.25;;
55328;SDS011;41205;44.264;19.884;2023-11-21T00:44:44;40.50;;;30.65;;
55328;SDS011;41205;44.264;19.884;2023-11-21T00:47:09;23.58;;;17.83;;
55328;SDS011;41205;44.264;19.884;2023-11-21T00:49:35;45.22;;;26.17;;
55328;SDS011;41205;44.264;19.884;2023-11-21T00:52:01;26.77;;;17.85;;
55328;SDS011;41205;44.264;19.884;2023-11-21T00:54:27;32.00;;;21.75;;
55328;SDS011;41205;44.264;19.884;2023-11-21T00:56:53;29.65;;;19.42;;
55328;SDS011;41205;44.264;19.884;2023-11-21T00:59:19;26.27;;;17.48;;
55328;SDS011;41205;44.264;19.884;2023-11-21T01:01:44;21.77;;;14.25;;
55328;SDS011;41205;44.264;19.884;2023-11-21T01:04:10;18.58;;;13.00;;
55328;SDS011;41205;44.264;19.884;2023-11-21T01:06:36;72.78;;;44.15;;
55328;SDS011;41205;44.264;19.884;2023-11-21T01:09:02;43.92;;;28.98;;
55328;SDS011;41205;44.264;19.884;2023-11-21T01:11:33;29.23;;;21.48;;
55328;SDS011;41205;44.264;19.884;2023-11-21T01:14:02;22.40;;;16.20;;
55328;SDS011;41205;44.264;19.884;2023-11-21T01:16:29;26.23;;;18.67;;
55328;SDS011;41205;44.264;19.884;2023-11-21T01:18:56;26.60;;;16.73;;
55328;SDS011;41205;44.264;19.884;2023-11-21T01:21:22;41.50;;;27.77;;
55328;SDS011;41205;44.264;19.884;2023-11-21T01:23:48;75.90;;;49.28;;
55328;SDS011;41205;44.264;19.884;2023-11-21T01:26:13;110.63;;;69.45;;
55328;SDS011;41205;44.264;19.884;2023-11-21T01:28:39;72.88;;;46.72;;
55328;SDS011;41205;44.264;19.884;2023-11-21T01:31:05;28.50;;;20.65;;
55328;SDS011;41205;44.264;19.884;2023-11-21T01:33:32;31.33;;;21.38;;
55328;SDS011;41205;44.264;19.884;2023-11-21T01:35:58;85.43;;;50.47;;
55328;SDS011;41205;44.264;19.884;2023-11-21T01:38:25;93.63;;;62.25;;
55328;SDS011;41205;44.264;19.884;2023-11-21T01:40:50;53.45;;;32.10;;
55328;SDS011;41205;44.264;19.884;2023-11-21T01:43:16;24.38;;;16.20;;
55328;SDS011;41205;44.264;19.884;2023-11-21T01:45:42;27.98;;;17.98;;
55328;SDS011;41205;44.264;19.884;2023-11-21T01:48:10;35.00;;;25.73;;
55328;SDS011;41205;44.264;19.884;2023-11-21T01:50:36;36.63;;;27.30;;
55328;SDS011;41205;44.264;19.884;2023-11-21T01:53:02;46.33;;;29.33;;
55328;SDS011;41205;44.264;19.884;2023-11-21T01:55:28;43.15;;;29.08;;
55328;SDS011;41205;44.264;19.884;2023-11-21T01:57:55;24.35;;;18.13;;
55328;SDS011;41205;44.264;19.884;2023-11-21T02:00:22;17.65;;;12.48;;
55328;SDS011;41205;44.264;19.884;2023-11-21T02:02:49;27.88;;;17.45;;
55328;SDS011;41205;44.264;19.884;2023-11-21T02:05:15;25.42;;;16.88;;
55328;SDS011;41205;44.264;19.884;2023-11-21T02:07:45;26.92;;;15.55;;
55328;SDS011;41205;44.264;19.884;2023-11-21T02:10:14;20.67;;;14.23;;
55328;SDS011;41205;44.264;19.884;2023-11-21T02:12:41;25.73;;;16.27;;
55328;SDS011;41205;44.264;19.884;2023-11-21T02:15:08;29.75;;;19.88;;
55328;SDS011;41205;44.264;19.884;2023-11-21T02:17:42;25.20;;;16.38;;
55328;SDS011;41205;44.264;19.884;2023-11-21T02:20:12;43.40;;;29.95;;
55328;SDS011;41205;44.264;19.884;2023-11-21T02:22:42;190.90;;;106.65;;
55328;SDS011;41205;44.264;19.884;2023-11-21T02:25:10;174.75;;;99.82;;
55328;SDS011;41205;44.264;19.884;2023-11-21T02:27:36;79.00;;;48.92;;
55328;SDS011;41205;44.264;19.884;2023-11-21T02:30:02;44.55;;;30.33;;
55328;SDS011;41205;44.264;19.884;2023-11-21T02:32:29;53.35;;;34.13;;
55328;SDS011;41205;44.264;19.884;2023-11-21T02:34:56;75.13;;;44.55;;
55328;SDS011;41205;44.264;19.884;2023-11-21T02:37:26;93.00;;;53.72;;
55328;SDS011;41205;44.264;19.884;2023-11-21T02:39:52;75.80;;;49.80;;
55328;SDS011;41205;44.264;19.884;2023-11-21T02:42:17;54.05;;;31.33;;
55328;SDS011;41205;44.264;19.884;2023-11-21T02:44:43;52.92;;;40.33;;
55328;SDS011;41205;44.264;19.884;2023-11-21T02:47:09;35.40;;;22.02;;
55328;SDS011;41205;44.264;19.884;2023-11-21T02:49:35;35.30;;;22.48;;
55328;SDS011;41205;44.264;19.884;2023-11-21T02:52:01;44.28;;;28.35;;
55328;SDS011;41205;44.264;19.884;2023-11-21T02:54:27;25.77;;;16.00;;
55328;SDS011;41205;44.264;19.884;2023-11-21T02:56:52;26.00;;;18.77;;
55328;SDS011;41205;44.264;19.884;2023-11-21T02:59:18;22.75;;;15.30;;
55328;SDS011;41205;44.264;19.884;2023-11-21T03:01:44;35.00;;;21.83;;
55328;SDS011;41205;44.264;19.884;2023-11-21T03:04:11;30.55;;;19.55;;
55328;SDS011;41205;44.264;19.884;2023-11-21T03:06:42;39.00;;;24.95;;
55328;SDS011;41205;44.264;19.884;2023-11-21T03:09:09;23.25;;;16.27;;
55328;SDS011;41205;44.264;19.884;2023-11-21T03:11:36;17.75;;;12.07;;
55328;SDS011;41205;44.264;19.884;2023-11-21T03:14:02;13.15;;;10.15;;
55328;SDS011;41205;44.264;19.884;2023-11-21T03:16:28;20.23;;;17.63;;
55328;SDS011;41205;44.264;19.884;2023-11-21T03:18:54;17.80;;;11.55;;
55328;SDS011;41205;44.264;19.884;2023-11-21T03:21:20;18.92;;;11.10;;
55328;SDS011;41205;44.264;19.884;2023-11-21T03:23:45;16.80;;;10.82;;
55328;SDS011;41205;44.264;19.884;2023-11-21T03:26:11;14.95;;;10.48;;
55328;SDS011;41205;44.264;19.884;2023-11-21T03:28:38;14.68;;;10.88;;
55328;SDS011;41205;44.264;19.884;2023-11-21T03:31:04;25.83;;;14.32;;
55328;SDS011;41205;44.264;19.884;2023-11-21T03:33:31;25.48;;;18.05;;
55328;SDS011;41205;44.264;19.884;2023-11-21T03:35:57;15.95;;;11.75;;
55328;SDS011;41205;44.264;19.884;2023-11-21T03:38:23;15.48;;;11.80;;
55328;SDS011;41205;44.264;19.884;2023-11-21T03:40:49;15.90;;;12.25;;
55328;SDS011;41205;44.264;19.884;2023-11-21T03:43:15;17.20;;;11.32;;
55328;SDS011;41205;44.264;19.884;2023-11-21T03:45:41;18.35;;;14.63;;
55328;SDS011;41205;44.264;19.884;2023-11-21T03:48:07;18.60;;;14.10;;
55328;SDS011;41205;44.264;19.884;2023-11-21T03:50:34;24.17;;;19.95;;
55328;SDS011;41205;44.264;19.884;2023-11-21T03:53:00;15.57;;;10.20;;
55328;SDS011;41205;44.264;19.884;2023-11-21T03:55:26;11.52;;;8.63;;
55328;SDS011;41205;44.264;19.884;2023-11-21T03:57:52;13.13;;;9.55;;
55328;SDS011;41205;44.264;19.884;2023-11-21T04:00:17;10.93;;;8.25;;
55328;SDS011;41205;44.264;19.884;2023-11-21T04:02:45;11.98;;;7.63;;
55328;SDS011;41205;44.264;19.884;2023-11-21T04:05:11;12.80;;;10.20;;
55328;SDS011;41205;44.264;19.884;2023-11-21T04:07:37;11.10;;;8.23;;
55328;SDS011;41205;44.264;19.884;2023-11-21T04:10:04;18.95;;;9.20;;
55328;SDS011;41205;44.264;19.884;2023-11-21T04:12:38;10.13;;;6.55;;
55328;SDS011;41205;44.264;19.884;2023-11-21T04:15:04;7.38;;;5.75;;
55328;SDS011;41205;44.264;19.884;2023-11-21T04:17:30;7.53;;;5.18;;
55328;SDS011;41205;44.264;19.884;2023-11-21T04:19:56;32.80;;;18.88;;
55328;SDS011;41205;44.264;19.884;2023-11-21T04:22:21;39.60;;;21.98;;
55328;SDS011;41205;44.264;19.884;2023-11-21T04:24:47;42.20;;;23.75;;
55328;SDS011;41205;44.264;19.884;2023-11-21T04:27:14;41.22;;;25.65;;
55328;SDS011;41205;44.264;19.884;2023-11-21T04:29:39;31.50;;;20.30;;
55328;SDS011;41205;44.264;19.884;2023-11-21T04:32:06;54.45;;;38.83;;
55328;SDS011;41205;44.264;19.884;2023-11-21T04:34:32;86.60;;;55.17;;
55328;SDS011;41205;44.264;19.884;2023-11-21T04:36:59;68.10;;;46.08;;
55328;SDS011;41205;44.264;19.884;2023-11-21T04:39:25;26.55;;;18.80;;
55328;SDS011;41205;44.264;19.884;2023-11-21T04:41:51;18.80;;;12.32;;
55328;SDS011;41205;44.264;19.884;2023-11-21T04:44:17;11.95;;;8.68;;
55328;SDS011;41205;44.264;19.884;2023-11-21T04:46:42;12.90;;;8.80;;
55328;SDS011;41205;44.264;19.884;2023-11-21T04:49:08;25.10;;;22.40;;
55328;SDS011;41205;44.264;19.884;2023-11-21T04:51:34;15.00;;;11.02;;
55328;SDS011;41205;44.264;19.884;2023-11-21T04:54:00;14.13;;;9.27;;
55328;SDS011;41205;44.264;19.884;2023-11-21T04:56:25;12.30;;;7.85;;
55328;SDS011;41205;44.264;19.884;2023-11-21T04:58:51;42.15;;;26.00;;
55328;SDS011;41205;44.264;19.884;2023-11-21T05:01:18;41.92;;;26.08;;
55328;SDS011;41205;44.264;19.884;2023-11-21T05:03:44;35.92;;;18.85;;
55328;SDS011;41205;44.264;19.884;2023-11-21T05:06:10;80.57;;;44.95;;
55328;SDS011;41205;44.264;19.884;2023-11-21T05:08:35;81.57;;;50.28;;
55328;SDS011;41205;44.264;19.884;2023-11-21T05:11:02;31.27;;;20.10;;
55328;SDS011;41205;44.264;19.884;2023-11-21T05:13:28;26.15;;;17.25;;
55328;SDS011;41205;44.264;19.884;2023-11-21T05:15:54;18.10;;;11.77;;
55328;SDS011;41205;44.264;19.884;2023-11-21T05:18:23;18.52;;;15.50;;
55328;SDS011;41205;44.264;19.884;2023-11-21T05:20:52;47.53;;;30.92;;
55328;SDS011;41205;44.264;19.884;2023-11-21T05:23:18;63.38;;;40.97;;
55328;SDS011;41205;44.264;19.884;2023-11-21T05:25:44;109.32;;;68.20;;
55328;SDS011;41205;44.264;19.884;2023-11-21T05:28:11;71.95;;;48.05;;
55328;SDS011;41205;44.264;19.884;2023-11-21T05:30:37;95.07;;;58.88;;
55328;SDS011;41205;44.264;19.884;2023-11-21T05:33:04;79.22;;;48.22;;
55328;SDS011;41205;44.264;19.884;2023-11-21T05:35:30;112.13;;;70.47;;
55328;SDS011;41205;44.264;19.884;2023-11-21T05:37:56;97.30;;;57.40;;
55328;SDS011;41205;44.264;19.884;2023-11-21T05:40:22;68.15;;;42.25;;
55328;SDS011;41205;44.264;19.884;2023-11-21T05:42:48;80.30;;;49.78;;
55328;SDS011;41205;44.264;19.884;2023-11-21T05:45:16;101.03;;;76.25;;
55328;SDS011;41205;44.264;19.884;2023-11-21T05:47:44;114.75;;;76.93;;
55328;SDS011;41205;44.264;19.884;2023-11-21T05:50:14;101.45;;;72.10;;
55328;SDS011;41205;44.264;19.884;2023-11-21T05:52:44;106.35;;;74.53;;
55328;SDS011;41205;44.264;19.884;2023-11-21T05:55:11;162.95;;;112.50;;
55328;SDS011;41205;44.264;19.884;2023-11-21T05:57:38;68.13;;;47.28;;
55328;SDS011;41205;44.264;19.884;2023-11-21T06:00:08;102.13;;;68.50;;
55328;SDS011;41205;44.264;19.884;2023-11-21T06:02:51;98.65;;;65.93;;
55328;SDS011;41205;44.264;19.884;2023-11-21T06:05:24;71.93;;;49.72;;
55328;SDS011;41205;44.264;19.884;2023-11-21T06:07:51;85.40;;;56.92;;
55328;SDS011;41205;44.264;19.884;2023-11-21T06:10:23;66.15;;;44.97;;
55328;SDS011;41205;44.264;19.884;2023-11-21T06:12:49;60.22;;;42.10;;
55328;SDS011;41205;44.264;19.884;2023-11-21T06:15:16;56.20;;;42.70;;
55328;SDS011;41205;44.264;19.884;2023-11-21T06:17:44;81.72;;;58.67;;
55328;SDS011;41205;44.264;19.884;2023-11-21T06:20:10;65.35;;;45.38;;
55328;SDS011;41205;44.264;19.884;2023-11-21T06:22:39;67.25;;;48.45;;
55328;SDS011;41205;44.264;19.884;2023-11-21T06:25:06;68.63;;;47.25;;
55328;SDS011;41205;44.264;19.884;2023-11-21T06:27:37;52.83;;;39.08;;
55328;SDS011;41205;44.264;19.884;2023-11-21T06:30:04;53.00;;;37.97;;
55328;SDS011;41205;44.264;19.884;2023-11-21T06:32:32;33.50;;;23.67;;
55328;SDS011;41205;44.264;19.884;2023-11-21T06:34:58;44.60;;;30.73;;
55328;SDS011;41205;44.264;19.884;2023-11-21T06:37:27;27.60;;;18.83;;
55328;SDS011;41205;44.264;19.884;2023-11-21T06:39:53;32.65;;;21.38;;
55328;SDS011;41205;44.264;19.884;2023-11-21T06:42:21;24.63;;;19.05;;
55328;SDS011;41205;44.264;19.884;2023-11-21T06:44:49;22.23;;;18.30;;
55328;SDS011;41205;44.264;19.884;2023-11-21T06:47:16;28.25;;;19.67;;
55328;SDS011;41205;44.264;19.884;2023-11-21T06:49:43;23.77;;;16.67;;
55328;SDS011;41205;44.264;19.884;2023-11-21T06:52:09;32.90;;;25.05;;
55328;SDS011;41205;44.264;19.884;2023-11-21T06:54:34;55.88;;;39.33;;
55328;SDS011;41205;44.264;19.884;2023-11-21T06:57:01;28.23;;;22.52;;
55328;SDS011;41205;44.264;19.884;2023-11-21T06:59:30;12.88;;;9.30;;
55328;SDS011;41205;44.264;19.884;2023-11-21T07:01:56;10.65;;;7.63;;
55328;SDS011;41205;44.264;19.884;2023-11-21T07:04:22;15.35;;;11.70;;
55328;SDS011;41205;44.264;19.884;2023-11-21T07:06:49;12.90;;;8.70;;
55328;SDS011;41205;44.264;19.884;2023-11-21T07:09:14;36.17;;;25.83;;
55328;SDS011;41205;44.264;19.884;2023-11-21T07:11:40;45.20;;;30.13;;
55328;SDS011;41205;44.264;19.884;2023-11-21T07:14:06;42.15;;;33.28;;
55328;SDS011;41205;44.264;19.884;2023-11-21T07:16:35;22.42;;;19.85;;
55328;SDS011;41205;44.264;19.884;2023-11-21T07:19:04;48.50;;;23.48;;
55328;SDS011;41205;44.264;19.884;2023-11-21T07:21:33;24.00;;;14.73;;
55328;SDS011;41205;44.264;19.884;2023-11-21T07:24:01;17.75;;;13.60;;
55328;SDS011;41205;44.264;19.884;2023-11-21T07:26:31;20.90;;;16.75;;
55328;SDS011;41205;44.264;19.884;2023-11-21T07:28:56;35.25;;;22.52;;
55328;SDS011;41205;44.264;19.884;2023-11-21T07:31:22;35.10;;;24.58;;
55328;SDS011;41205;44.264;19.884;2023-11-21T07:33:49;43.38;;;30.73;;
55328;SDS011;41205;44.264;19.884;2023-11-21T07:36:15;45.33;;;31.40;;
55328;SDS011;41205;44.264;19.884;2023-11-21T07:38:43;41.13;;;28.38;;
55328;SDS011;41205;44.264;19.884;2023-11-21T07:41:10;136.27;;;99.07;;
55328;SDS011;41205;44.264;19.884;2023-11-21T07:43:36;80.05;;;55.22;;
55328;SDS011;41205;44.264;19.884;2023-11-21T07:46:02;71.20;;;47.40;;
55328;SDS011;41205;44.264;19.884;2023-11-21T07:48:29;221.30;;;175.40;;
55328;SDS011;41205;44.264;19.884;2023-11-21T07:50:56;292.55;;;230.20;;
55328;SDS011;41205;44.264;19.884;2023-11-21T07:53:23;194.27;;;145.55;;
55328;SDS011;41205;44.264;19.884;2023-11-21T07:55:50;253.52;;;198.75;;
55328;SDS011;41205;44.264;19.884;2023-11-21T07:58:17;316.25;;;247.80;;
55328;SDS011;41205;44.264;19.884;2023-11-21T08:00:43;239.43;;;187.35;;
55328;SDS011;41205;44.264;19.884;2023-11-21T08:03:09;97.22;;;76.60;;
55328;SDS011;41205;44.264;19.884;2023-11-21T08:05:36;86.20;;;69.28;;
55328;SDS011;41205;44.264;19.884;2023-11-21T08:08:02;67.10;;;52.28;;
55328;SDS011;41205;44.264;19.884;2023-11-21T08:10:28;158.63;;;120.03;;
55328;SDS011;41205;44.264;19.884;2023-11-21T08:12:55;84.60;;;64.55;;
55328;SDS011;41205;44.264;19.884;2023-11-21T08:15:21;143.68;;;107.10;;
55328;SDS011;41205;44.264;19.884;2023-11-21T08:17:47;121.47;;;91.32;;
55328;SDS011;41205;44.264;19.884;2023-11-21T08:20:13;97.75;;;71.55;;
55328;SDS011;41205;44.264;19.884;2023-11-21T08:22:41;78.32;;;58.42;;
55328;SDS011;41205;44.264;19.884;2023-11-21T08:25:07;122.22;;;96.35;;
55328;SDS011;41205;44.264;19.884;2023-11-21T08:27:33;149.43;;;115.82;;
55328;SDS011;41205;44.264;19.884;2023-11-21T08:30:00;324.92;;;246.48;;
55328;SDS011;41205;44.264;19.884;2023-11-21T08:32:26;278.05;;;222.85;;
55328;SDS011;41205;44.264;19.884;2023-11-21T08:34:52;242.65;;;185.48;;
55328;SDS011;41205;44.264;19.884;2023-11-21T08:37:17;237.02;;;187.70;;
55328;SDS011;41205;44.264;19.884;2023-11-21T08:39:44;206.00;;;153.75;;
55328;SDS011;41205;44.264;19.884;2023-11-21T08:42:10;167.43;;;125.95;;
55328;SDS011;41205;44.264;19.884;2023-11-21T08:44:35;178.85;;;135.88;;
55328;SDS011;41205;44.264;19.884;2023-11-21T08:47:01;157.10;;;121.00;;
55328;SDS011;41205;44.264;19.884;2023-11-21T08:49:27;151.55;;;112.20;;
55328;SDS011;41205;44.264;19.884;2023-11-21T08:51:54;225.00;;;174.32;;
55328;SDS011;41205;44.264;19.884;2023-11-21T08:54:24;236.85;;;192.20;;
55328;SDS011;41205;44.264;19.884;2023-11-21T08:56:51;441.50;;;309.25;;
55328;SDS011;41205;44.264;19.884;2023-11-21T08:59:17;519.33;;;364.95;;
55328;SDS011;41205;44.264;19.884;2023-11-21T09:01:45;401.08;;;278.75;;
55328;SDS011;41205;44.264;19.884;2023-11-21T09:04:11;403.88;;;298.90;;
55328;SDS011;41205;44.264;19.884;2023-11-21T09:06:37;521.92;;;384.60;;
55328;SDS011;41205;44.264;19.884;2023-11-21T09:09:04;1038.20;;;661.13;;
55328;SDS011;41205;44.264;19.884;2023-11-21T09:11:31;477.10;;;327.25;;
55328;SDS011;41205;44.264;19.884;2023-11-21T09:13:59;337.67;;;234.10;;
55328;SDS011;41205;44.264;19.884;2023-11-21T09:16:25;377.70;;;257.73;;
55328;SDS011;41205;44.264;19.884;2023-11-21T09:18:51;297.20;;;215.95;;
55328;SDS011;41205;44.264;19.884;2023-11-21T09:21:16;305.15;;;229.48;;
55328;SDS011;41205;44.264;19.884;2023-11-21T09:23:44;334.60;;;246.85;;
55328;SDS011;41205;44.264;19.884;2023-11-21T09:26:09;333.40;;;257.63;;
55328;SDS011;41205;44.264;19.884;2023-11-21T09:28:35;257.40;;;198.50;;
55328;SDS011;41205;44.264;19.884;2023-11-21T09:31:03;282.33;;;223.57;;
55328;SDS011;41205;44.264;19.884;2023-11-21T09:33:34;251.27;;;194.18;;
55328;SDS011;41205;44.264;19.884;2023-11-21T09:36:00;219.20;;;171.55;;
55328;SDS011;41205;44.264;19.884;2023-11-21T09:38:26;270.27;;;210.05;;
55328;SDS011;41205;44.264;19.884;2023-11-21T09:40:54;312.33;;;240.55;;
55328;SDS011;41205;44.264;19.884;2023-11-21T09:43:20;296.92;;;220.68;;
55328;SDS011;41205;44.264;19.884;2023-11-21T09:45:47;258.42;;;198.95;;
55328;SDS011;41205;44.264;19.884;2023-11-21T09:48:18;263.15;;;198.60;;
55328;SDS011;41205;44.264;19.884;2023-11-21T09:50:46;220.00;;;176.90;;
55328;SDS011;41205;44.264;19.884;2023-11-21T09:53:13;187.25;;;144.27;;
55328;SDS011;41205;44.264;19.884;2023-11-21T09:55:51;169.48;;;129.52;;
55328;SDS011;41205;44.264;19.884;2023-11-21T09:58:18;191.55;;;150.65;;
55328;SDS011;41205;44.264;19.884;2023-11-21T10:00:45;149.38;;;115.28;;
55328;SDS011;41205;44.264;19.884;2023-11-21T10:03:12;108.82;;;85.30;;
55328;SDS011;41205;44.264;19.884;2023-11-21T10:05:39;119.22;;;91.80;;
55328;SDS011;41205;44.264;19.884;2023-11-21T10:08:07;159.15;;;126.10;;
55328;SDS011;41205;44.264;19.884;2023-11-21T10:10:37;155.05;;;125.68;;
55328;SDS011;41205;44.264;19.884;2023-11-21T10:13:09;179.63;;;133.88;;
55328;SDS011;41205;44.264;19.884;2023-11-21T10:15:37;111.97;;;92.60;;
55328;SDS011;41205;44.264;19.884;2023-11-21T10:18:03;66.05;;;51.58;;
55328;SDS011;41205;44.264;19.884;2023-11-21T10:20:34;102.47;;;76.20;;
55328;SDS011;41205;44.264;19.884;2023-11-21T10:23:02;104.95;;;79.53;;
55328;SDS011;41205;44.264;19.884;2023-11-21T10:25:28;100.95;;;74.75;;
55328;SDS011;41205;44.264;19.884;2023-11-21T10:27:57;59.60;;;47.95;;
55328;SDS011;41205;44.264;19.884;2023-11-21T10:33:00;134.63;;;104.93;;
55328;SDS011;41205;44.264;19.884;2023-11-21T10:35:38;159.48;;;124.05;;
55328;SDS011;41205;44.264;19.884;2023-11-21T10:38:19;304.90;;;239.23;;
55328;SDS011;41205;44.264;19.884;2023-11-21T10:40:48;344.88;;;262.98;;
55328;SDS011;41205;44.264;19.884;2023-11-21T10:43:14;370.55;;;291.80;;
55328;SDS011;41205;44.264;19.884;2023-11-21T10:45:41;335.90;;;274.88;;
55328;SDS011;41205;44.264;19.884;2023-11-21T10:48:13;314.65;;;256.08;;
55328;SDS011;41205;44.264;19.884;2023-11-21T10:50:42;197.65;;;156.02;;
55328;SDS011;41205;44.264;19.884;2023-11-21T10:53:10;231.90;;;190.35;;
55328;SDS011;41205;44.264;19.884;2023-11-21T10:55:37;331.45;;;269.30;;
55328;SDS011;41205;44.264;19.884;2023-11-21T10:58:03;352.08;;;298.63;;
55328;SDS011;41205;44.264;19.884;2023-11-21T11:00:30;383.52;;;310.55;;
55328;SDS011;41205;44.264;19.884;2023-11-21T11:02:59;357.10;;;301.45;;
55328;SDS011;41205;44.264;19.884;2023-11-21T11:05:26;373.75;;;306.52;;
55328;SDS011;41205;44.264;19.884;2023-11-21T11:08:03;348.00;;;286.15;;
55328;SDS011;41205;44.264;19.884;2023-11-21T11:10:30;341.60;;;283.73;;
55328;SDS011;41205;44.264;19.884;2023-11-21T11:12:57;354.17;;;298.75;;
55328;SDS011;41205;44.264;19.884;2023-11-21T11:15:27;187.32;;;147.82;;
55328;SDS011;41205;44.264;19.884;2023-11-21T11:17:53;277.15;;;217.25;;
55328;SDS011;41205;44.264;19.884;2023-11-21T11:20:23;271.27;;;219.43;;
55328;SDS011;41205;44.264;19.884;2023-11-21T11:23:11;283.85;;;232.20;;
55328;SDS011;41205;44.264;19.884;2023-11-21T11:26:17;305.42;;;241.93;;
55328;SDS011;41205;44.264;19.884;2023-11-21T11:31:48;239.63;;;167.18;;
55328;SDS011;41205;44.264;19.884;2023-11-21T11:37:03;201.23;;;139.68;;
55328;SDS011;41205;44.264;19.884;2023-11-21T11:39:40;189.57;;;144.20;;
55328;SDS011;41205;44.264;19.884;2023-11-21T11:42:16;207.10;;;154.60;;
55328;SDS011;41205;44.264;19.884;2023-11-21T11:55:13;229.63;;;179.68;;
55328;SDS011;41205;44.264;19.884;2023-11-21T11:57:41;239.43;;;186.73;;
55328;SDS011;41205;44.264;19.884;2023-11-21T12:02:55;184.57;;;153.27;;
55328;SDS011;41205;44.264;19.884;2023-11-21T12:05:24;204.88;;;166.68;;
55328;SDS011;41205;44.264;19.884;2023-11-21T12:07:57;247.68;;;200.85;;
55328;SDS011;41205;44.264;19.884;2023-11-21T12:10:29;267.45;;;214.23;;
55328;SDS011;41205;44.264;19.884;2023-11-21T12:12:56;268.83;;;221.15;;
55328;SDS011;41205;44.264;19.884;2023-11-21T12:15:24;256.92;;;212.05;;
55328;SDS011;41205;44.264;19.884;2023-11-21T12:17:52;224.80;;;188.32;;
55328;SDS011;41205;44.264;19.884;2023-11-21T12:20:19;293.85;;;238.80;;
55328;SDS011;41205;44.264;19.884;2023-11-21T12:22:52;337.35;;;276.40;;
55328;SDS011;41205;44.264;19.884;2023-11-21T12:25:22;355.15;;;281.90;;
55328;SDS011;41205;44.264;19.884;2023-11-21T12:27:50;328.15;;;267.15;;
55328;SDS011;41205;44.264;19.884;2023-11-21T12:30:18;302.63;;;251.82;;
55328;SDS011;41205;44.264;19.884;2023-11-21T12:32:52;374.83;;;302.45;;
55328;SDS011;41205;44.264;19.884;2023-11-21T12:35:18;336.38;;;286.23;;
55328;SDS011;41205;44.264;19.884;2023-11-21T12:37:46;375.10;;;306.60;;
55328;SDS011;41205;44.264;19.884;2023-11-21T12:40:13;245.48;;;202.73;;
55328;SDS011;41205;44.264;19.884;2023-11-21T12:42:44;324.80;;;268.33;;
55328;SDS011;41205;44.264;19.884;2023-11-21T12:47:43;422.80;;;329.20;;
55328;SDS011;41205;44.264;19.884;2023-11-21T12:50:18;386.40;;;310.88;;
55328;SDS011;41205;44.264;19.884;2023-11-21T12:52:49;300.17;;;248.63;;
55328;SDS011;41205;44.264;19.884;2023-11-21T12:55:22;224.77;;;178.77;;
55328;SDS011;41205;44.264;19.884;2023-11-21T12:57:55;272.67;;;220.73;;
55328;SDS011;41205;44.264;19.884;2023-11-21T13:00:34;264.38;;;198.57;;
55328;SDS011;41205;44.264;19.884;2023-11-21T13:03:03;247.07;;;195.60;;
55328;SDS011;41205;44.264;19.884;2023-11-21T13:05:39;282.10;;;222.18;;
55328;SDS011;41205;44.264;19.884;2023-11-21T13:08:10;306.23;;;239.60;;
55328;SDS011;41205;44.264;19.884;2023-11-21T13:10:41;308.27;;;238.60;;
55328;SDS011;41205;44.264;19.884;2023-11-21T13:13:09;128.85;;;100.13;;
55328;SDS011;41205;44.264;19.884;2023-11-21T13:15:46;102.20;;;79.07;;
55328;SDS011;41205;44.264;19.884;2023-11-21T13:18:17;95.40;;;74.45;;
55328;SDS011;41205;44.264;19.884;2023-11-21T13:20:43;101.72;;;80.57;;
55328;SDS011;41205;44.264;19.884;2023-11-21T13:23:10;46.90;;;36.47;;
55328;SDS011;41205;44.264;19.884;2023-11-21T13:25:41;50.42;;;34.42;;
55328;SDS011;41205;44.264;19.884;2023-11-21T13:28:07;51.83;;;37.75;;
55328;SDS011;41205;44.264;19.884;2023-11-21T13:30:34;78.80;;;58.92;;
55328;SDS011;41205;44.264;19.884;2023-11-21T13:35:29;60.10;;;47.17;;
55328;SDS011;41205;44.264;19.884;2023-11-21T13:38:03;67.60;;;46.67;;
55328;SDS011;41205;44.264;19.884;2023-11-21T13:40:31;63.58;;;49.92;;
55328;SDS011;41205;44.264;19.884;2023-11-21T13:42:59;229.13;;;163.05;;
55328;SDS011;41205;44.264;19.884;2023-11-21T13:45:29;144.90;;;105.00;;
55328;SDS011;41205;44.264;19.884;2023-11-21T13:47:56;96.10;;;73.18;;
55328;SDS011;41205;44.264;19.884;2023-11-21T13:50:24;90.97;;;64.95;;
55328;SDS011;41205;44.264;19.884;2023-11-21T13:52:58;53.08;;;38.03;;
55328;SDS011;41205;44.264;19.884;2023-11-21T14:09:44;20.88;;;18.38;;
55328;SDS011;41205;44.264;19.884;2023-11-21T14:12:09;25.23;;;22.75;;
55328;SDS011;41205;44.264;19.884;2023-11-21T14:14:37;17.33;;;15.32;;
55328;SDS011;41205;44.264;19.884;2023-11-21T14:17:05;22.92;;;19.80;;
55328;SDS011;41205;44.264;19.884;2023-11-21T14:19:32;17.35;;;15.45;;
55328;SDS011;41205;44.264;19.884;2023-11-21T14:21:59;14.63;;;12.60;;
55328;SDS011;41205;44.264;19.884;2023-11-21T14:24:25;14.85;;;13.23;;
55328;SDS011;41205;44.264;19.884;2023-11-21T14:26:51;16.73;;;15.00;;
55328;SDS011;41205;44.264;19.884;2023-11-21T14:29:18;16.08;;;14.10;;
55328;SDS011;41205;44.264;19.884;2023-11-21T14:31:48;15.90;;;13.07;;
55328;SDS011;41205;44.264;19.884;2023-11-21T14:34:16;18.40;;;12.88;;
55328;SDS011;41205;44.264;19.884;2023-11-21T14:36:43;18.08;;;14.40;;
55328;SDS011;41205;44.264;19.884;2023-11-21T14:39:09;45.92;;;35.05;;
55328;SDS011;41205;44.264;19.884;2023-11-21T14:41:48;23.30;;;19.00;;
55328;SDS011;41205;44.264;19.884;2023-11-21T14:44:14;20.20;;;15.63;;